Time;durP1;ratioP1;P1;durP2;ratioP2;P2;SDS_P1;SDS_P2;PMS_P1;PMS_P2;Temp;Humidity;BMP_temperature;BMP_pressure;BME280_temperature;BME280_humidity;BME280_pressure;Samples;Min_cycle;Max_cycle;Signal;HPM_P1;HPM_P2
2022/05/17 00:00:55;;;;;;;7.15;2.20;;;22.20;47.80;;;;;;5013552;28;20026;-82
2022/05/17 00:03:21;;;;;;;5.88;2.50;;;22.20;48.10;;;;;;5009365;28;20026;-79
2022/05/17 00:05:47;;;;;;;7.60;2.22;;;22.30;48.20;;;;;;4992530;28;20057;-80
2022/05/17 00:08:14;;;;;;;4.60;2.20;;;22.30;48.20;;;;;;4995993;28;20029;-81
2022/05/17 00:10:41;;;;;;;4.10;2.05;;;22.30;48.20;;;;;;4993156;28;20026;-81
2022/05/17 00:13:07;;;;;;;5.28;2.30;;;22.30;48.30;;;;;;5013881;28;20515;-82
2022/05/17 00:15:34;;;;;;;7.93;2.30;;;22.20;48.80;;;;;;5028189;28;20033;-81
2022/05/17 00:18:01;;;;;;;5.50;2.25;;;22.20;48.70;;;;;;4978298;28;20037;-81
2022/05/17 00:20:27;;;;;;;8.32;2.33;;;22.20;48.70;;;;;;4990619;28;20085;-81
2022/05/17 00:22:53;;;;;;;7.10;2.17;;;22.20;49.10;;;;;;5005646;28;20053;-81
2022/05/17 00:25:21;;;;;;;6.25;2.20;;;22.20;48.80;;;;;;5018195;28;20029;-81
2022/05/17 00:27:47;;;;;;;6.60;2.42;;;22.20;48.80;;;;;;4963008;28;20049;-80
2022/05/17 00:30:13;;;;;;;4.80;2.20;;;22.20;49.30;;;;;;4996544;28;20022;-81
2022/05/17 00:32:39;;;;;;;4.03;1.88;;;22.20;49.50;;;;;;4995498;28;20022;-81
2022/05/17 00:35:05;;;;;;;4.13;1.60;;;22.20;49.50;;;;;;5013119;28;20029;-80
2022/05/17 00:37:31;;;;;;;7.80;2.38;;;22.20;49.30;;;;;;4996026;28;20040;-81
2022/05/17 00:39:57;;;;;;;8.52;2.30;;;22.30;49.90;;;;;;4997389;28;20038;-82
2022/05/17 00:42:25;;;;;;;8.60;2.50;;;22.30;50.10;;;;;;4984994;28;20064;-81
2022/05/17 00:44:51;;;;;;;4.50;2.20;;;22.30;50.30;;;;;;5001223;28;20023;-84
2022/05/17 00:47:28;;;;;;;5.10;2.10;;;22.30;50.30;;;;;;5014216;28;20536;-83
2022/05/17 00:50:02;;;;;;;5.80;1.90;;;22.30;50.30;;;;;;5011649;28;20042;-84
2022/05/17 00:52:46;;;;;;;4.82;1.85;;;22.30;50.50;;;;;;4982651;28;20030;-81
2022/05/17 00:55:27;;;;;;;5.88;2.30;;;22.30;50.40;;;;;;4996913;28;20041;-81
2022/05/17 00:57:58;;;;;;;4.90;2.20;;;22.30;50.60;;;;;;5011639;28;20091;-81
2022/05/17 01:00:25;;;;;;;5.75;2.08;;;22.30;50.70;;;;;;4982607;28;20490;-81
2022/05/17 01:02:59;;;;;;;9.60;2.50;;;22.30;50.30;;;;;;5010581;28;20161;-82
2022/05/17 01:05:26;;;;;;;4.15;2.10;;;22.30;50.80;;;;;;4979658;28;20069;-82
2022/05/17 01:07:54;;;;;;;5.93;2.00;;;22.30;50.80;;;;;;5016986;28;20104;-81
2022/05/17 01:10:21;;;;;;;4.32;1.92;;;22.30;50.30;;;;;;5010786;28;20022;-82
2022/05/17 01:14:57;;;;;;;4.72;2.10;;;22.30;50.80;;;;;;5012298;28;20026;-81
2022/05/17 01:15:34;;;;;;;5.00;2.30;;;22.30;50.80;;;;;;5012141;28;20131;-80
2022/05/17 01:18:01;;;;;;;4.65;2.03;;;22.30;50.60;;;;;;5005542;28;20180;-81
2022/05/17 01:20:27;;;;;;;4.95;1.98;;;22.30;50.80;;;;;;4996733;28;20096;-80
2022/05/17 01:22:53;;;;;;;3.08;2.03;;;22.30;51.40;;;;;;5000346;28;20421;-81
2022/05/17 01:25:19;;;;;;;4.70;2.05;;;22.30;50.80;;;;;;4995422;28;20025;-80
2022/05/17 01:27:53;;;;;;;3.60;1.80;;;22.30;51.10;;;;;;5002765;28;20046;-80
2022/05/17 01:30:26;;;;;;;8.10;2.20;;;22.30;50.70;;;;;;5012949;28;20452;-82
2022/05/17 01:32:52;;;;;;;4.78;2.05;;;22.30;51.40;;;;;;4968005;28;20026;-82
2022/05/17 01:35:19;;;;;;;3.95;1.90;;;22.30;51.60;;;;;;4994126;28;20030;-82
2022/05/17 01:37:45;;;;;;;4.30;2.10;;;22.30;51.70;;;;;;4993994;28;20026;-82
2022/05/17 01:40:12;;;;;;;7.03;2.22;;;22.30;51.60;;;;;;4994289;28;20057;-82
2022/05/17 01:42:38;;;;;;;5.13;1.90;;;22.30;51.70;;;;;;5010816;28;20025;-82
2022/05/17 01:45:06;;;;;;;4.10;2.10;;;22.30;51.70;;;;;;4977828;28;20029;-82
2022/05/17 01:47:31;;;;;;;3.53;1.77;;;22.30;51.50;;;;;;5026583;28;20117;-82
2022/05/17 01:49:57;;;;;;;4.28;1.92;;;22.30;51.50;;;;;;5020828;28;20112;-82
2022/05/17 01:52:23;;;;;;;4.00;1.80;;;22.30;51.60;;;;;;5027480;28;20441;-82
2022/05/17 01:54:48;;;;;;;5.28;2.05;;;22.30;51.30;;;;;;4994632;28;20038;-81
2022/05/17 01:57:14;;;;;;;2.90;1.85;;;22.30;51.20;;;;;;5024282;28;20037;-81
2022/05/17 01:59:40;;;;;;;4.72;2.10;;;22.30;51.80;;;;;;5026261;28;20041;-82
2022/05/17 02:02:06;;;;;;;5.25;1.90;;;22.30;51.50;;;;;;4978406;28;20040;-81
2022/05/17 02:04:32;;;;;;;5.40;1.80;;;22.30;51.30;;;;;;4976031;28;20402;-81
2022/05/17 02:06:59;;;;;;;4.95;2.20;;;22.30;51.50;;;;;;5014402;28;20446;-82
2022/05/17 02:09:25;;;;;;;7.43;2.08;;;22.30;52.20;;;;;;5013974;28;20052;-82
2022/05/17 02:11:50;;;;;;;4.35;2.20;;;22.30;52.30;;;;;;4997725;28;20481;-82
2022/05/17 02:14:17;;;;;;;5.75;1.92;;;22.30;51.60;;;;;;4976591;28;20034;-81
2022/05/17 02:16:43;;;;;;;6.10;2.35;;;22.30;52.10;;;;;;5010435;28;20089;-82
2022/05/17 02:19:09;;;;;;;4.78;2.00;;;22.30;52.50;;;;;;4998311;28;20092;-82
2022/05/17 02:21:36;;;;;;;5.47;1.88;;;22.30;51.90;;;;;;4986424;28;20430;-82
2022/05/17 02:24:03;;;;;;;6.65;2.10;;;22.30;52.10;;;;;;5017225;28;20028;-82
2022/05/17 02:26:30;;;;;;;3.42;1.60;;;22.30;52.40;;;;;;4994636;28;20029;-81
2022/05/17 02:28:56;;;;;;;5.50;1.95;;;22.30;52.10;;;;;;4992169;28;20040;-82
2022/05/17 02:31:23;;;;;;;4.05;1.70;;;22.30;52.20;;;;;;4996402;28;20025;-83
2022/05/17 02:33:48;;;;;;;4.22;2.03;;;22.30;52.50;;;;;;5020000;28;20022;-82
2022/05/17 02:36:14;;;;;;;4.40;2.08;;;22.30;52.60;;;;;;4983767;28;20036;-81
2022/05/17 02:38:40;;;;;;;3.53;1.58;;;22.30;52.70;;;;;;5011569;28;21354;-81
2022/05/17 02:41:07;;;;;;;6.32;2.10;;;22.30;52.70;;;;;;4999851;28;20106;-81
2022/05/17 02:43:33;;;;;;;7.28;1.70;;;22.30;52.70;;;;;;4966277;28;20033;-81
2022/05/17 02:45:59;;;;;;;5.32;1.55;;;22.30;52.70;;;;;;5007427;28;20397;-80
2022/05/17 02:48:25;;;;;;;9.80;2.42;;;22.30;52.60;;;;;;5017377;28;20045;-81
2022/05/17 02:50:51;;;;;;;14.18;2.13;;;22.30;52.30;;;;;;5010608;28;20026;-81
2022/05/17 02:53:16;;;;;;;3.80;1.58;;;22.30;52.30;;;;;;5006585;28;20034;-80
2022/05/17 02:55:42;;;;;;;3.53;1.70;;;22.30;52.10;;;;;;4977846;28;20053;-79
2022/05/17 02:58:08;;;;;;;3.53;2.03;;;22.30;52.30;;;;;;5015706;28;20030;-81
2022/05/17 03:00:34;;;;;;;3.95;1.83;;;22.30;52.50;;;;;;5010688;28;20391;-81
2022/05/17 03:03:01;;;;;;;5.13;1.98;;;22.30;52.40;;;;;;4981257;28;20026;-81
2022/05/17 03:05:26;;;;;;;4.15;2.00;;;22.30;52.50;;;;;;5011723;28;20038;-82
2022/05/17 03:07:52;;;;;;;3.88;1.92;;;22.30;52.30;;;;;;4995624;28;20026;-81
2022/05/17 03:10:18;;;;;;;2.90;1.70;;;22.30;53.00;;;;;;4990913;28;20484;-81
2022/05/17 03:12:44;;;;;;;5.82;2.05;;;22.30;52.70;;;;;;5002398;28;20030;-81
2022/05/17 03:15:16;;;;;;;4.78;1.73;;;22.30;52.40;;;;;;5009304;28;20026;-82
2022/05/17 03:17:41;;;;;;;5.30;2.00;;;22.30;52.60;;;;;;5013502;28;20049;-82
2022/05/17 03:20:07;;;;;;;4.70;1.98;;;22.30;52.40;;;;;;4991587;28;20066;-81
2022/05/17 03:22:33;;;;;;;2.95;1.50;;;22.30;52.60;;;;;;5008354;28;20061;-81
2022/05/17 03:24:58;;;;;;;2.75;1.83;;;22.30;52.80;;;;;;5001139;28;20414;-81
2022/05/17 03:27:24;;;;;;;3.47;2.03;;;22.30;53.20;;;;;;4980130;28;20033;-82
2022/05/17 03:29:50;;;;;;;5.07;1.83;;;22.30;53.00;;;;;;5010503;28;22215;-82
2022/05/17 03:32:16;;;;;;;5.45;1.92;;;22.30;53.20;;;;;;5016977;28;20026;-81
2022/05/17 03:34:41;;;;;;;5.43;1.85;;;22.30;53.00;;;;;;5012849;28;20034;-83
2022/05/17 03:37:07;;;;;;;4.63;2.00;;;22.30;52.60;;;;;;5014530;28;20061;-82
2022/05/17 03:39:33;;;;;;;6.20;2.00;;;22.30;52.80;;;;;;4999668;28;20030;-81
2022/05/17 03:41:59;;;;;;;6.20;2.05;;;22.30;53.50;;;;;;5005483;28;20033;-82
2022/05/17 03:44:25;;;;;;;5.10;2.20;;;22.30;53.40;;;;;;5013077;28;20383;-83
2022/05/17 03:46:51;;;;;;;5.78;1.88;;;22.30;53.50;;;;;;5022293;28;20478;-84
2022/05/17 03:49:16;;;;;;;4.05;1.83;;;22.30;53.20;;;;;;5014500;28;20071;-88
2022/05/17 03:51:45;;;;;;;5.97;1.80;;;22.30;53.00;;;;;;5023269;28;20041;-89
2022/05/17 03:54:14;;;;;;;3.53;1.70;;;22.30;52.90;;;;;;4965322;28;20022;-87
2022/05/17 03:56:40;;;;;;;4.07;1.90;;;22.30;53.00;;;;;;5014663;28;20034;-88
2022/05/17 03:59:06;;;;;;;4.90;1.88;;;22.30;53.10;;;;;;4977874;28;20026;-86
2022/05/17 04:01:31;;;;;;;4.68;1.85;;;22.30;53.10;;;;;;4986987;28;20029;-85
2022/05/17 04:03:57;;;;;;;3.50;1.60;;;22.30;53.10;;;;;;4997838;28;20502;-85
2022/05/17 04:06:23;;;;;;;3.78;1.65;;;22.30;53.20;;;;;;5000611;28;20490;-85
2022/05/17 04:08:50;;;;;;;3.63;2.20;;;22.30;53.30;;;;;;4981184;28;20547;-86
2022/05/17 04:11:15;;;;;;;5.40;2.17;;;22.30;53.30;;;;;;5026604;28;20498;-82
2022/05/17 04:13:41;;;;;;;4.07;1.88;;;22.20;53.20;;;;;;5010883;28;20033;-85
2022/05/17 04:16:08;;;;;;;4.90;2.03;;;22.20;53.20;;;;;;4999090;28;20022;-86
2022/05/17 04:18:33;;;;;;;8.52;2.10;;;22.20;53.40;;;;;;4977151;28;20034;-84
2022/05/17 04:21:01;;;;;;;5.25;1.85;;;22.30;53.60;;;;;;4995451;28;20026;-85
2022/05/17 04:23:27;;;;;;;3.15;1.85;;;22.30;53.50;;;;;;4980006;28;20061;-86
2022/05/17 04:25:53;;;;;;;3.35;1.83;;;22.30;53.20;;;;;;4969919;28;20049;-86
2022/05/17 04:28:19;;;;;;;5.07;2.08;;;22.30;53.20;;;;;;5012809;28;20030;-87
2022/05/17 04:30:45;;;;;;;5.00;2.00;;;22.30;53.70;;;;;;5003459;28;20029;-86
2022/05/17 04:33:11;;;;;;;4.60;2.00;;;22.30;53.40;;;;;;4996324;28;20068;-87
2022/05/17 04:35:39;;;;;;;5.88;2.20;;;22.30;53.20;;;;;;4983593;28;20037;-86
2022/05/17 04:38:06;;;;;;;5.90;2.25;;;22.30;53.30;;;;;;4980116;28;20117;-86
2022/05/17 04:40:33;;;;;;;4.30;2.08;;;22.30;53.30;;;;;;4996689;28;20037;-87
2022/05/17 04:42:59;;;;;;;5.18;2.10;;;22.30;53.40;;;;;;4996023;28;20033;-88
2022/05/17 04:45:25;;;;;;;6.40;2.30;;;22.30;53.50;;;;;;4997064;28;20046;-87
2022/05/17 04:47:51;;;;;;;4.63;2.30;;;22.30;53.80;;;;;;4988038;28;20029;-85
2022/05/17 04:50:19;;;;;;;3.10;1.92;;;22.20;53.50;;;;;;4967278;28;20022;-85
2022/05/17 04:52:47;;;;;;;5.10;2.33;;;22.30;53.50;;;;;;5001487;28;20022;-83
2022/05/17 04:55:14;;;;;;;4.05;1.85;;;22.20;53.50;;;;;;4962914;28;20120;-79
2022/05/17 04:57:40;;;;;;;5.03;2.33;;;22.30;53.60;;;;;;5012949;28;20497;-81
2022/05/17 05:00:10;;;;;;;3.55;2.10;;;22.20;53.60;;;;;;4995751;28;20105;-80
2022/05/17 05:02:36;;;;;;;4.07;2.08;;;22.20;53.60;;;;;;5013438;28;20481;-82
2022/05/17 05:05:04;;;;;;;7.75;2.20;;;22.20;53.70;;;;;;5007257;28;20026;-81
2022/05/17 05:07:29;;;;;;;4.53;1.88;;;22.20;53.70;;;;;;5018997;28;20026;-81
2022/05/17 05:09:55;;;;;;;7.93;2.40;;;22.20;53.70;;;;;;5012948;28;20590;-83
2022/05/17 05:12:21;;;;;;;4.85;2.13;;;22.30;53.70;;;;;;5014434;28;20026;-81
2022/05/17 05:14:46;;;;;;;4.30;1.92;;;22.20;53.70;;;;;;4995243;28;20069;-81
2022/05/17 05:17:13;;;;;;;4.72;2.08;;;22.20;53.60;;;;;;5012152;28;20517;-81
2022/05/17 05:19:39;;;;;;;5.75;2.10;;;22.20;53.50;;;;;;5012768;28;20026;-81
2022/05/17 05:22:05;;;;;;;5.55;2.20;;;22.20;53.50;;;;;;5013128;28;20022;-81
2022/05/17 05:24:31;;;;;;;6.57;2.65;;;22.30;53.60;;;;;;5010317;28;20108;-81
2022/05/17 05:26:58;;;;;;;6.82;2.35;;;22.30;53.60;;;;;;5002419;28;20033;-83
2022/05/17 05:29:25;;;;;;;3.72;2.03;;;22.30;53.70;;;;;;4978460;28;20038;-82
2022/05/17 05:31:50;;;;;;;5.20;2.40;;;22.30;53.70;;;;;;4984227;28;20405;-82
2022/05/17 05:34:16;;;;;;;3.53;2.10;;;22.20;53.80;;;;;;4987232;28;20041;-82
2022/05/17 05:36:42;;;;;;;4.28;2.40;;;22.20;53.80;;;;;;5026210;28;20047;-82
2022/05/17 05:39:07;;;;;;;5.25;2.28;;;22.20;53.70;;;;;;4979321;28;20022;-83
2022/05/17 05:41:33;;;;;;;5.53;2.35;;;22.20;53.90;;;;;;4992443;28;20028;-83
2022/05/17 05:43:59;;;;;;;5.15;2.65;;;22.20;53.90;;;;;;4996945;28;20021;-83
2022/05/17 05:46:25;;;;;;;5.13;2.30;;;22.20;54.00;;;;;;4994846;28;20026;-82
2022/05/17 05:48:51;;;;;;;5.07;1.83;;;22.20;54.00;;;;;;4996944;28;20482;-83
2022/05/17 05:51:18;;;;;;;6.70;2.67;;;22.20;54.00;;;;;;5022644;28;20037;-82
2022/05/17 05:53:44;;;;;;;7.72;2.60;;;22.20;54.00;;;;;;5026042;28;20041;-83
2022/05/17 05:56:11;;;;;;;5.55;2.58;;;22.20;54.10;;;;;;4994960;28;20029;-83
2022/05/17 05:58:39;;;;;;;4.30;2.40;;;22.20;54.20;;;;;;5027142;28;20449;-83
2022/05/17 06:01:06;;;;;;;6.50;2.10;;;22.20;54.20;;;;;;5014547;28;20021;-82
2022/05/17 06:03:33;;;;;;;6.53;2.70;;;22.20;54.30;;;;;;5011351;28;20501;-82
2022/05/17 06:06:00;;;;;;;4.78;2.65;;;22.20;54.30;;;;;;5010453;28;20034;-80
2022/05/17 06:08:26;;;;;;;4.78;2.47;;;22.20;54.30;;;;;;5002505;28;20044;-81
2022/05/17 06:10:52;;;;;;;9.23;2.50;;;22.20;54.40;;;;;;4998535;28;20029;-82
2022/05/17 06:13:18;;;;;;;5.25;2.67;;;22.20;54.30;;;;;;5002691;28;20029;-83
2022/05/17 06:15:45;;;;;;;4.47;2.20;;;22.20;54.30;;;;;;4994177;28;20123;-83
2022/05/17 06:18:11;;;;;;;5.22;2.47;;;22.30;54.20;;;;;;5011044;28;20044;-83
2022/05/17 06:20:38;;;;;;;5.03;2.58;;;22.30;54.30;;;;;;4985147;28;20033;-82
2022/05/17 06:23:05;;;;;;;5.15;2.83;;;22.30;54.20;;;;;;4986210;28;20029;-85
2022/05/17 06:25:32;;;;;;;7.78;2.70;;;22.30;54.10;;;;;;4994099;28;20030;-82
2022/05/17 06:27:59;;;;;;;5.88;2.55;;;22.30;54.20;;;;;;5002644;28;20500;-83
2022/05/17 06:30:26;;;;;;;5.75;2.70;;;22.20;54.30;;;;;;4993037;28;20022;-81
2022/05/17 06:32:51;;;;;;;4.82;2.30;;;22.20;54.30;;;;;;5011577;28;20147;-80
2022/05/17 06:35:18;;;;;;;4.28;2.40;;;22.30;54.50;;;;;;5007455;28;20061;-82
2022/05/17 06:37:44;;;;;;;6.60;2.78;;;22.20;54.40;;;;;;4995430;28;20064;-83
2022/05/17 06:40:11;;;;;;;5.47;2.65;;;22.20;54.50;;;;;;5016308;28;20040;-84
2022/05/17 06:42:37;;;;;;;7.20;2.67;;;22.20;54.80;;;;;;4992449;28;20041;-83
2022/05/17 06:45:03;;;;;;;7.38;2.80;;;22.20;54.50;;;;;;4982176;28;20030;-84
2022/05/17 06:47:29;;;;;;;5.63;2.88;;;22.20;54.60;;;;;;5007900;28;20018;-82
2022/05/17 06:49:55;;;;;;;7.30;2.80;;;22.20;54.70;;;;;;5015029;28;20037;-83
2022/05/17 06:52:23;;;;;;;6.43;2.78;;;22.20;54.60;;;;;;5026932;28;20026;-84
2022/05/17 06:54:49;;;;;;;4.30;2.70;;;22.20;54.80;;;;;;4993090;28;20037;-83
2022/05/17 06:57:15;;;;;;;6.53;2.70;;;22.20;54.80;;;;;;5011579;28;20433;-81
2022/05/17 06:59:43;;;;;;;4.65;2.80;;;22.20;54.60;;;;;;4995261;28;20036;-82
2022/05/17 07:02:09;;;;;;;5.53;2.60;;;22.20;54.80;;;;;;5009155;28;20037;-82
2022/05/17 07:04:35;;;;;;;5.88;3.25;;;22.20;54.80;;;;;;4992486;28;20030;-83
2022/05/17 07:07:03;;;;;;;7.13;3.08;;;22.20;54.60;;;;;;5012989;28;20026;-84
2022/05/17 07:09:30;;;;;;;6.47;3.15;;;22.20;54.70;;;;;;5015363;28;20044;-83
2022/05/17 07:14:41;;;;;;;5.03;2.88;;;22.20;55.00;;;;;;5016886;28;20030;-81
2022/05/17 07:17:15;;;;;;;7.10;2.67;;;22.20;54.60;;;;;;4999586;28;20079;-83
2022/05/17 07:19:42;;;;;;;4.82;2.65;;;22.20;54.70;;;;;;5014027;28;20076;-83
2022/05/17 07:22:08;;;;;;;8.57;3.13;;;22.20;54.60;;;;;;4986374;28;20030;-84
2022/05/17 07:24:36;;;;;;;7.18;2.88;;;22.30;55.00;;;;;;4995933;28;20046;-84
2022/05/17 07:27:03;;;;;;;5.78;2.90;;;22.30;56.00;;;;;;4991740;28;20025;-87
2022/05/17 07:29:29;;;;;;;7.63;3.40;;;22.30;55.00;;;;;;5003542;28;20040;-81
2022/05/17 07:31:55;;;;;;;8.88;2.72;;;22.30;55.00;;;;;;5014942;28;20097;-82
2022/05/17 07:34:21;;;;;;;9.20;3.25;;;22.30;55.70;;;;;;5003560;28;20110;-81
2022/05/17 07:36:48;;;;;;;10.15;3.30;;;22.40;55.70;;;;;;5013622;28;20025;-82
2022/05/17 07:39:14;;;;;;;15.63;3.80;;;22.40;55.50;;;;;;5014679;28;20029;-82
2022/05/17 07:41:43;;;;;;;34.33;5.57;;;22.40;55.80;;;;;;5016253;28;20026;-81
2022/05/17 07:44:09;;;;;;;20.27;4.90;;;22.40;55.90;;;;;;5012553;28;20421;-82
2022/05/17 07:46:35;;;;;;;30.27;5.88;;;22.40;56.00;;;;;;4999092;28;20486;-81
2022/05/17 07:49:01;;;;;;;23.88;4.93;;;22.40;56.30;;;;;;4996900;28;20121;-80
2022/05/17 07:51:27;;;;;;;28.33;5.03;;;22.50;56.80;;;;;;4981245;28;21319;-80
2022/05/17 07:53:55;;;;;;;28.83;6.20;;;22.50;56.70;;;;;;5020357;28;20033;-75
2022/05/17 07:56:21;;;;;;;18.00;5.72;;;22.50;56.50;;;;;;4993721;28;20529;-78
2022/05/17 07:58:46;;;;;;;23.98;5.32;;;22.40;57.80;;;;;;5010145;28;20037;-80
2022/05/17 08:01:13;;;;;;;27.02;6.40;;;22.40;56.20;;;;;;5012173;28;20018;-79
2022/05/17 08:03:39;;;;;;;17.95;5.38;;;22.40;57.40;;;;;;4995783;28;20163;-79
2022/05/17 08:06:05;;;;;;;25.30;5.65;;;22.40;57.70;;;;;;4978672;28;20112;-78
2022/05/17 08:08:31;;;;;;;33.85;6.15;;;22.40;57.40;;;;;;5011607;28;20025;-67
2022/05/17 08:10:57;;;;;;;20.27;5.82;;;22.40;57.60;;;;;;5020609;28;20040;-67
2022/05/17 08:13:23;;;;;;;31.27;18.23;;;22.40;57.40;;;;;;5010851;28;20371;-68
2022/05/17 08:15:49;;;;;;;33.78;17.52;;;22.30;58.00;;;;;;5012851;28;20062;-68
2022/05/17 08:18:16;;;;;;;23.85;12.25;;;22.30;57.80;;;;;;5019546;28;20050;-69
2022/05/17 08:20:43;;;;;;;18.38;9.27;;;22.30;58.10;;;;;;5013689;28;20022;-77
2022/05/17 08:23:08;;;;;;;24.30;11.40;;;22.20;57.90;;;;;;5022937;28;20037;-79
2022/05/17 08:28:20;;;;;;;25.45;9.35;;;22.30;58.50;;;;;;4980194;28;20105;-78
2022/05/17 08:30:47;;;;;;;29.42;9.77;;;22.30;57.80;;;;;;5027651;28;20026;-78
2022/05/17 08:33:18;;;;;;;23.55;10.45;;;22.30;57.80;;;;;;5008345;28;20081;-78
2022/05/17 08:35:49;;;;;;;19.63;9.68;;;22.30;57.60;;;;;;4994140;28;20026;-78
2022/05/17 08:38:24;;;;;;;23.65;9.32;;;22.30;58.30;;;;;;4993958;28;20026;-78
2022/05/17 08:41:01;;;;;;;18.77;9.93;;;22.30;58.00;;;;;;5025591;28;20113;-78
2022/05/17 08:43:35;;;;;;;23.13;9.45;;;22.30;57.70;;;;;;5008303;28;20092;-78
2022/05/17 08:46:28;;;;;;;18.27;8.85;;;22.30;57.70;;;;;;5001390;28;20693;-78
2022/05/17 08:49:21;;;;;;;18.42;9.38;;;22.30;58.00;;;;;;5005765;28;20037;-78
2022/05/17 08:51:52;;;;;;;23.10;9.35;;;22.30;58.00;;;;;;5012913;28;20073;-78
2022/05/17 08:54:30;;;;;;;17.48;8.90;;;22.30;57.80;;;;;;5012612;28;20030;-78
2022/05/17 08:57:21;;;;;;;15.65;8.27;;;22.30;57.70;;;;;;5012352;28;20430;-78
2022/05/17 08:59:48;;;;;;;23.08;9.88;;;22.40;57.50;;;;;;5012121;28;20132;-77
2022/05/17 09:02:23;;;;;;;17.90;9.05;;;22.40;57.70;;;;;;5012754;28;20049;-78
2022/05/17 09:05:11;;;;;;;20.75;8.93;;;22.40;57.60;;;;;;5003359;28;20030;-78
2022/05/17 09:07:56;;;;;;;17.05;8.63;;;22.40;57.30;;;;;;5011910;28;20064;-78
2022/05/17 09:10:43;;;;;;;14.00;8.43;;;22.40;58.00;;;;;;5011900;28;20032;-78
2022/05/17 09:13:25;;;;;;;21.38;8.75;;;22.40;57.10;;;;;;4994772;28;20036;-78
2022/05/17 09:15:53;;;;;;;20.80;8.48;;;22.40;57.20;;;;;;4995745;28;20065;-78
2022/05/17 09:18:20;;;;;;;15.48;9.05;;;22.40;57.30;;;;;;5012020;28;20044;-78
2022/05/17 09:20:46;;;;;;;16.98;8.52;;;22.40;57.40;;;;;;4996567;28;20054;-77
2022/05/17 09:23:12;;;;;;;19.95;8.65;;;22.50;57.30;;;;;;5010343;28;20115;-78
2022/05/17 09:26:01;;;;;;;16.85;8.88;;;22.40;56.80;;;;;;4995481;28;20038;-77
2022/05/17 09:28:45;;;;;;;15.32;8.73;;;22.40;56.60;;;;;;5012695;28;20525;-77
2022/05/17 09:31:17;;;;;;;14.93;8.27;;;22.50;56.70;;;;;;5011641;28;20571;-78
2022/05/17 09:33:44;;;;;;;17.70;8.85;;;22.50;56.60;;;;;;5011705;28;20041;-78
2022/05/17 09:36:23;;;;;;;17.20;8.75;;;22.50;56.60;;;;;;4995065;28;20049;-78
2022/05/17 09:38:51;;;;;;;17.33;7.93;;;22.50;56.60;;;;;;5011901;28;20079;-78
2022/05/17 09:41:21;;;;;;;16.98;8.13;;;22.50;56.70;;;;;;5011923;28;20048;-77
2022/05/17 09:43:51;;;;;;;;;;;22.50;56.70;;;;;;4994365;28;20042;-77
2022/05/17 09:46:34;;;;;;;16.60;8.65;;;22.50;56.60;;;;;;4995066;28;19918;-77
2022/05/17 09:54:50;;;;;;;15.70;8.10;;;22.40;56.80;;;;;;5039658;28;20071;-80
2022/05/17 09:57:31;;;;;;;16.20;8.30;;;22.40;56.70;;;;;;5032363;28;20413;-80
2022/05/17 10:00:12;;;;;;;15.55;8.60;;;22.50;56.70;;;;;;5012324;28;20036;-80
2022/05/17 10:02:41;;;;;;;13.57;8.00;;;22.50;56.70;;;;;;5012177;28;20025;-81
2022/05/17 10:05:18;;;;;;;17.02;8.48;;;22.50;56.70;;;;;;5011634;28;20072;-80
2022/05/17 10:07:57;;;;;;;14.90;7.78;;;22.50;56.60;;;;;;5026944;28;20076;-80
2022/05/17 10:10:35;;;;;;;16.77;8.45;;;22.50;56.70;;;;;;5028465;28;20064;-80
2022/05/17 10:13:26;;;;;;;15.52;8.25;;;22.50;56.70;;;;;;5031232;28;20137;-81
2022/05/17 10:16:00;;;;;;;16.48;8.20;;;22.50;56.70;;;;;;5031997;28;20034;-81
2022/05/17 10:18:42;;;;;;;19.45;8.02;;;22.50;56.80;;;;;;5031801;28;20041;-81
2022/05/17 10:21:21;;;;;;;15.95;8.27;;;22.50;56.80;;;;;;5014215;28;20125;-81
2022/05/17 10:24:20;;;;;;;13.90;7.88;;;22.40;56.80;;;;;;5026741;28;20022;-80
2022/05/17 10:26:52;;;;;;;15.60;8.07;;;22.50;56.90;;;;;;5031283;28;20022;-80
2022/05/17 10:29:45;;;;;;;15.52;8.10;;;22.50;56.80;;;;;;5014158;28;20037;-80
2022/05/17 10:32:22;;;;;;;13.25;7.90;;;22.50;56.80;;;;;;5031411;28;20033;-81
2022/05/17 10:35:02;;;;;;;13.55;7.20;;;22.50;56.80;;;;;;5013099;28;20414;-81
2022/05/17 10:37:38;;;;;;;13.68;7.60;;;22.40;56.70;;;;;;5031706;28;20072;-81
2022/05/17 10:40:11;;;;;;;14.52;7.82;;;22.50;56.80;;;;;;5024205;28;20493;-80
2022/05/17 10:42:38;;;;;;;16.92;7.38;;;22.50;56.80;;;;;;5029982;28;20026;-81
2022/05/17 10:45:06;;;;;;;17.88;7.63;;;22.50;57.10;;;;;;5030607;28;20026;-82
2022/05/17 10:47:49;;;;;;;16.92;7.88;;;22.50;56.70;;;;;;5031182;28;20025;-82
2022/05/17 10:50:23;;;;;;;16.25;7.55;;;22.50;56.90;;;;;;5031340;28;20405;-82
2022/05/17 10:53:02;;;;;;;17.95;7.63;;;22.40;56.80;;;;;;5030582;28;20041;-81
2022/05/17 10:55:49;;;;;;;14.23;7.63;;;22.40;56.60;;;;;;5012223;28;20486;-82
2022/05/17 10:58:48;;;;;;;15.85;7.55;;;22.50;56.60;;;;;;5022918;28;20026;-82
2022/05/17 11:01:29;;;;;;;15.05;7.05;;;22.40;56.50;;;;;;5031163;28;20049;-82
2022/05/17 11:04:24;;;;;;;13.70;7.07;;;22.50;56.70;;;;;;4996828;28;20042;-80
2022/05/17 11:07:20;;;;;;;18.17;7.95;;;22.50;57.10;;;;;;4995053;28;20122;-79
2022/05/17 11:09:57;;;;;;;16.90;7.75;;;22.60;57.20;;;;;;5027229;28;20474;-79
2022/05/17 11:12:27;;;;;;;15.15;7.70;;;22.60;56.90;;;;;;5027607;28;20615;-80
2022/05/17 11:15:09;;;;;;;16.30;7.80;;;22.60;57.10;;;;;;5030485;28;20084;-80
2022/05/17 11:17:50;;;;;;;16.08;6.88;;;22.60;57.10;;;;;;5030818;28;20029;-79
2022/05/17 11:20:45;;;;;;;15.63;7.03;;;22.60;57.10;;;;;;5013303;28;20044;-80
2022/05/17 11:23:16;;;;;;;14.80;7.47;;;22.50;57.20;;;;;;5030232;28;20452;-80
2022/05/17 11:26:05;;;;;;;14.52;8.00;;;22.60;57.30;;;;;;5026579;28;20038;-80
2022/05/17 11:28:39;;;;;;;17.67;7.57;;;22.60;57.40;;;;;;5028364;28;20479;-80
2022/05/17 11:31:13;;;;;;;16.38;8.10;;;22.60;57.50;;;;;;5030955;28;20025;-80
2022/05/17 11:33:40;;;;;;;17.98;7.88;;;22.60;57.30;;;;;;5029943;28;20037;-80
2022/05/17 11:36:31;;;;;;;15.77;7.80;;;22.60;57.40;;;;;;5013468;28;20037;-80
2022/05/17 11:38:57;;;;;;;18.88;8.32;;;22.60;57.50;;;;;;5029183;28;20524;-79
2022/05/17 11:41:42;;;;;;;18.85;8.23;;;22.60;58.20;;;;;;5029054;28;20025;-80
2022/05/17 11:44:14;;;;;;;20.42;9.00;;;22.60;57.50;;;;;;5021697;28;20018;-80
2022/05/17 11:46:55;;;;;;;18.75;8.45;;;22.70;57.60;;;;;;5030645;28;20022;-81
2022/05/17 11:49:45;;;;;;;18.08;9.02;;;22.70;57.30;;;;;;5030526;28;20041;-80
2022/05/17 11:52:20;;;;;;;18.83;8.07;;;22.70;57.40;;;;;;5021198;28;20033;-80
2022/05/17 11:54:48;;;;;;;19.38;7.90;;;22.70;57.70;;;;;;5013917;28;20080;-80
2022/05/17 11:57:16;;;;;;;20.75;9.38;;;22.80;57.60;;;;;;5018556;28;20064;-80
2022/05/17 11:59:45;;;;;;;21.38;8.70;;;22.80;61.10;;;;;;5030773;28;20099;-80
2022/05/17 12:02:13;;;;;;;23.42;9.95;;;22.80;58.80;;;;;;5029188;28;20026;-80
2022/05/17 12:04:44;;;;;;;20.95;8.90;;;22.90;60.60;;;;;;5015915;28;20030;-80
2022/05/17 12:07:25;;;;;;;20.63;8.52;;;22.80;60.30;;;;;;5016350;28;20033;-72
2022/05/17 12:09:57;;;;;;;23.63;9.70;;;22.90;63.20;;;;;;5034117;28;20100;-72
2022/05/17 12:12:32;;;;;;;27.10;10.57;;;23.00;63.20;;;;;;5016126;28;20057;-72
2022/05/17 12:15:10;;;;;;;20.20;9.10;;;23.00;63.20;;;;;;5013786;28;20087;-72
2022/05/17 12:17:45;;;;;;;25.55;11.00;;;23.00;59.60;;;;;;4997859;28;20542;-72
2022/05/17 12:20:19;;;;;;;24.05;8.98;;;23.00;63.00;;;;;;4996354;28;20038;-72
2022/05/17 12:23:08;;;;;;;21.30;10.02;;;22.90;62.20;;;;;;5013311;28;20026;-73
2022/05/17 12:25:43;;;;;;;17.52;7.60;;;22.90;62.30;;;;;;5013818;28;20022;-74
2022/05/17 12:28:19;;;;;;;20.80;9.57;;;22.90;61.80;;;;;;5026317;28;20030;-74
2022/05/17 12:30:54;;;;;;;21.08;8.80;;;22.80;63.40;;;;;;5007595;28;20151;-74
2022/05/17 12:33:26;;;;;;;26.45;8.60;;;22.90;62.80;;;;;;4997756;28;20120;-74
2022/05/17 12:35:54;;;;;;;27.27;8.55;;;22.80;61.90;;;;;;5031937;28;20432;-74
2022/05/17 12:43:57;;;;;;;19.90;6.90;;;22.90;62.20;;;;;;5013522;28;20461;-74
2022/05/17 12:46:30;;;;;;;21.17;7.40;;;22.80;61.00;;;;;;5005844;28;20040;-74
2022/05/17 12:49:00;;;;;;;24.17;7.63;;;22.80;61.00;;;;;;5024924;28;20477;-74
2022/05/17 12:51:27;;;;;;;21.70;8.85;;;22.80;61.10;;;;;;5030217;28;20120;-73
2022/05/17 12:53:55;;;;;;;16.33;7.97;;;22.70;61.60;;;;;;5011696;28;20091;-73
2022/05/17 12:56:20;;;;;;;16.67;7.40;;;22.80;61.80;;;;;;5001310;28;20541;-73
2022/05/17 12:58:56;;;;;;;18.85;7.07;;;22.70;61.00;;;;;;5016497;28;20029;-72
2022/05/17 13:01:43;;;;;;;15.88;7.13;;;22.70;61.20;;;;;;5014712;28;20079;-73
2022/05/17 13:04:14;;;;;;;15.63;6.07;;;22.70;61.10;;;;;;5014340;28;20022;-76
2022/05/17 13:06:45;;;;;;;16.90;6.53;;;22.70;60.60;;;;;;5026565;28;20024;-73
2022/05/17 13:09:18;;;;;;;15.35;5.97;;;22.60;60.30;;;;;;5002439;28;20029;-74
2022/05/17 13:11:44;;;;;;;14.90;6.28;;;22.60;59.80;;;;;;5024581;28;20037;-74
2022/05/17 13:14:31;;;;;;;13.73;5.25;;;22.60;59.80;;;;;;5028404;28;20033;-75